createdAt,value
2023-01-10T00:00:34.536Z,1.08
2023-01-10T00:02:37.565Z,1.10
2023-01-10T00:04:40.522Z,1.00
2023-01-10T00:06:43.409Z,1.02
2023-01-10T00:08:47.644Z,1.10
2023-01-10T00:10:50.388Z,0.90
2023-01-10T00:13:24.987Z,0.90
2023-01-10T00:15:28.054Z,0.98
2023-01-10T00:17:30.997Z,0.85
2023-01-10T00:19:33.831Z,0.90
2023-01-10T00:21:36.893Z,0.90
2023-01-10T00:23:39.742Z,0.70
2023-01-10T00:25:43.865Z,0.80
2023-01-10T00:27:49.336Z,0.80
2023-01-10T00:29:53.782Z,0.50
2023-01-10T00:31:57.101Z,0.90
2023-01-10T00:33:59.886Z,0.70
2023-01-10T00:36:04.163Z,1.00
2023-01-10T00:38:07.373Z,0.73
2023-01-10T00:40:13.665Z,0.70
2023-01-10T00:42:35.576Z,0.90
2023-01-10T00:44:38.370Z,0.63
2023-01-10T00:46:41.213Z,0.60
2023-01-10T00:48:44.011Z,0.70
2023-01-10T00:50:47.224Z,0.50
2023-01-10T00:52:50.102Z,0.60
2023-01-10T00:54:52.926Z,0.60
2023-01-10T00:56:55.683Z,0.50
2023-01-10T00:58:59.878Z,0.60
2023-01-10T01:01:04.649Z,0.75
2023-01-10T01:03:07.925Z,0.55
2023-01-10T01:05:10.904Z,0.50
2023-01-10T01:07:14.091Z,0.63
2023-01-10T01:09:17.023Z,0.90
2023-01-10T01:11:19.861Z,0.45
2023-01-10T01:13:23.222Z,0.50
2023-01-10T01:15:28.412Z,0.60
2023-01-10T01:17:31.215Z,0.60
2023-01-10T01:19:33.999Z,0.70
2023-01-10T01:21:36.735Z,0.60
2023-01-10T01:23:39.492Z,0.80
2023-01-10T01:25:42.472Z,0.80
2023-01-10T01:27:45.322Z,0.60
2023-01-10T01:29:48.061Z,0.60
2023-01-10T01:31:52.249Z,0.88
2023-01-10T01:33:55.111Z,0.50
2023-01-10T01:35:57.978Z,0.60
2023-01-10T01:38:01.046Z,0.80
2023-01-10T01:40:04.156Z,0.45
2023-01-10T01:42:07.778Z,0.88
2023-01-10T01:44:16.504Z,0.70
2023-01-10T01:46:19.458Z,0.73
2023-01-10T01:48:31.236Z,0.47
2023-01-10T01:50:39.541Z,0.45
2023-01-10T01:52:42.427Z,0.65
2023-01-10T01:54:45.292Z,0.50
2023-01-10T01:56:52.603Z,0.57
2023-01-10T01:58:59.287Z,0.82
2023-01-10T02:01:02.338Z,0.70
2023-01-10T02:03:06.717Z,0.80
2023-01-10T02:05:13.940Z,0.70
2023-01-10T02:07:16.833Z,0.60
2023-01-10T02:09:25.811Z,0.70
2023-01-10T02:11:30.468Z,0.70
2023-01-10T02:13:35.125Z,0.60
2023-01-10T02:15:38.086Z,0.80
2023-01-10T02:17:41.193Z,0.90
2023-01-10T02:19:52.582Z,0.70
2023-01-10T02:22:46.241Z,0.80
2023-01-10T02:25:19.647Z,0.70
2023-01-10T02:27:27.415Z,0.95
2023-01-10T02:30:15.216Z,0.88
2023-01-10T02:32:47.789Z,0.90
2023-01-10T02:35:09.271Z,0.90
2023-01-10T02:37:16.490Z,0.73
2023-01-10T02:39:27.654Z,1.48
2023-01-10T02:41:36.498Z,1.10
2023-01-10T02:43:43.663Z,0.75
2023-01-10T02:45:51.370Z,0.80
2023-01-10T02:47:56.916Z,1.20
2023-01-10T02:50:17.612Z,1.90
2023-01-10T02:52:24.508Z,0.80
2023-01-10T02:54:30.914Z,1.00
2023-01-10T02:57:18.049Z,1.15
2023-01-10T02:59:53.011Z,0.90
2023-01-10T03:02:01.352Z,1.52
2023-01-10T03:04:13.787Z,0.95
2023-01-10T03:06:28.693Z,1.00
2023-01-10T03:08:37.837Z,1.10
2023-01-10T03:10:46.194Z,1.15
2023-01-10T03:12:52.746Z,1.17
2023-01-10T03:14:58.256Z,1.30
2023-01-10T03:17:04.980Z,1.95
2023-01-10T03:19:12.505Z,1.10
2023-01-10T03:21:19.725Z,1.23
2023-01-10T03:23:24.302Z,1.65
2023-01-10T03:25:34.172Z,1.45
2023-01-10T03:27:45.543Z,1.40
2023-01-10T03:29:55.569Z,1.40
2023-01-10T03:32:03.941Z,1.40
2023-01-10T03:34:07.230Z,1.42
2023-01-10T03:36:20.804Z,1.15
2023-01-10T03:38:31.325Z,1.02
2023-01-10T03:40:42.184Z,1.40
2023-01-10T03:43:07.618Z,1.02
2023-01-10T03:45:16.137Z,1.30
2023-01-10T03:47:27.901Z,1.30
2023-01-10T03:49:32.586Z,1.80
2023-01-10T03:51:38.474Z,1.25
2023-01-10T03:53:41.336Z,2.28
2023-01-10T03:55:46.280Z,1.30
2023-01-10T03:59:54.040Z,2.00
2023-01-10T04:01:57.403Z,2.08
2023-01-10T04:04:00.337Z,1.85
2023-01-10T04:06:04.665Z,2.03
2023-01-10T04:08:08.846Z,1.55
2023-01-10T04:10:12.582Z,1.70
2023-01-10T04:12:15.733Z,2.03
2023-01-10T04:14:18.510Z,2.00
2023-01-10T04:16:21.422Z,1.77
2023-01-10T04:18:24.303Z,1.38
2023-01-10T04:20:27.429Z,1.50
2023-01-10T04:22:30.212Z,1.60
2023-01-10T04:24:34.358Z,2.28
2023-01-10T04:26:37.285Z,1.80
2023-01-10T04:28:40.136Z,1.70
2023-01-10T04:30:42.974Z,1.75
2023-01-10T04:32:45.836Z,1.75
2023-01-10T04:34:49.712Z,1.17
2023-01-10T04:36:52.550Z,2.35
2023-01-10T04:38:55.455Z,1.95
2023-01-10T04:40:59.701Z,1.92
2023-01-10T04:43:02.777Z,1.92
2023-01-10T04:45:06.509Z,1.98
2023-01-10T04:47:09.295Z,2.42
2023-01-10T04:49:12.563Z,2.38
2023-01-10T04:51:15.349Z,2.40
2023-01-10T04:53:18.496Z,1.90
2023-01-10T04:55:21.669Z,2.10
2023-01-10T04:57:25.863Z,2.22
2023-01-10T04:59:28.741Z,1.80
2023-01-10T05:01:31.559Z,2.20
2023-01-10T05:03:34.393Z,1.98
2023-01-10T05:05:37.960Z,2.13
2023-01-10T05:07:41.423Z,1.92
2023-01-10T05:09:44.175Z,2.20
2023-01-10T05:11:46.956Z,1.67
2023-01-10T05:13:51.144Z,2.92
2023-01-10T05:15:55.016Z,1.88
2023-01-10T05:18:00.913Z,2.43
2023-01-10T05:20:03.902Z,1.75
2023-01-10T05:22:06.705Z,1.88
2023-01-10T05:24:10.144Z,2.20
2023-01-10T05:26:15.176Z,2.60
2023-01-10T05:28:17.992Z,2.00
2023-01-10T05:30:22.521Z,2.20
2023-01-10T05:32:29.354Z,2.40
2023-01-10T05:34:32.207Z,2.35
2023-01-10T05:36:34.990Z,2.03
2023-01-10T05:38:37.792Z,2.38
2023-01-10T05:40:40.535Z,2.22
2023-01-10T05:42:43.441Z,2.65
2023-01-10T05:44:46.247Z,2.67
2023-01-10T05:46:50.635Z,1.83
2023-01-10T05:48:53.699Z,2.30
2023-01-10T05:50:57.608Z,2.20
2023-01-10T05:53:04.447Z,1.83
2023-01-10T05:55:07.828Z,2.00
2023-01-10T05:57:10.653Z,1.80
2023-01-10T05:59:27.381Z,2.05
2023-01-10T06:01:30.675Z,1.52
2023-01-10T06:03:34.853Z,2.50
2023-01-10T06:05:37.663Z,1.95
2023-01-10T06:07:40.502Z,2.05
2023-01-10T06:09:43.286Z,3.15
2023-01-10T06:11:46.171Z,2.38
2023-01-10T06:13:53.730Z,2.83
2023-01-10T06:15:56.797Z,2.92
2023-01-10T06:17:59.531Z,2.60
2023-01-10T06:20:03.994Z,2.33
2023-01-10T06:22:06.830Z,2.40
2023-01-10T06:24:10.450Z,1.88
2023-01-10T06:26:13.355Z,2.30
2023-01-10T06:28:16.392Z,2.60
2023-01-10T06:30:19.340Z,2.65
2023-01-10T06:32:22.225Z,2.08
2023-01-10T06:34:25.330Z,2.72
2023-01-10T06:36:29.443Z,3.10
2023-01-10T06:38:32.223Z,2.97
2023-01-10T06:40:35.054Z,3.15
2023-01-10T06:42:38.795Z,3.53
2023-01-10T06:44:41.582Z,2.97
2023-01-10T06:46:44.858Z,3.25
2023-01-10T06:48:48.329Z,2.58
2023-01-10T06:50:51.398Z,4.20
2023-01-10T06:52:59.647Z,3.30
2023-01-10T06:55:02.476Z,3.25
2023-01-10T06:57:05.821Z,2.60
2023-01-10T06:59:09.986Z,2.92
2023-01-10T07:01:16.030Z,3.83
2023-01-10T07:03:19.173Z,3.20
2023-01-10T07:05:22.176Z,3.42
2023-01-10T07:07:25.004Z,3.35
2023-01-10T07:09:29.481Z,2.70
2023-01-10T07:11:34.239Z,2.97
2023-01-10T07:13:37.142Z,3.33
2023-01-10T07:15:39.948Z,2.35
2023-01-10T07:17:42.756Z,2.40
2023-01-10T07:19:45.563Z,2.53
2023-01-10T07:21:48.356Z,3.30
2023-01-10T07:23:52.120Z,2.40
2023-01-10T07:25:56.299Z,2.58
2023-01-10T07:27:59.094Z,2.72
2023-01-10T07:30:02.032Z,2.40
2023-01-10T07:32:05.143Z,3.67
2023-01-10T07:34:07.999Z,3.42
2023-01-10T07:36:11.245Z,3.10
2023-01-10T07:38:14.009Z,2.15
2023-01-10T07:40:16.945Z,2.72
2023-01-10T07:42:21.051Z,2.28
2023-01-10T07:44:24.116Z,3.15
2023-01-10T07:46:26.974Z,2.70
2023-01-10T07:48:30.228Z,2.95
2023-01-10T07:50:35.455Z,3.03
2023-01-10T07:52:38.482Z,3.65
2023-01-10T07:54:41.331Z,3.35
2023-01-10T07:56:44.572Z,3.30
2023-01-10T07:58:48.765Z,4.85
2023-01-10T08:00:51.636Z,3.58
2023-01-10T08:02:55.185Z,4.43
2023-01-10T08:04:58.184Z,3.22
2023-01-10T08:07:00.966Z,3.75
2023-01-10T08:09:05.815Z,3.63
2023-01-10T08:11:08.677Z,4.07
2023-01-10T08:13:18.867Z,3.63
2023-01-10T08:15:23.363Z,2.58
2023-01-10T08:17:26.650Z,3.85
2023-01-10T08:19:30.521Z,3.15
2023-01-10T08:21:33.472Z,2.58
2023-01-10T08:23:36.685Z,2.40
2023-01-10T08:25:39.710Z,2.97
2023-01-10T08:27:42.629Z,3.83
2023-01-10T08:29:45.603Z,3.22
2023-01-10T08:31:49.779Z,2.83
2023-01-10T08:33:52.610Z,3.47
2023-01-10T08:35:55.371Z,2.55
2023-01-10T08:38:00.592Z,2.47
2023-01-10T08:40:03.452Z,2.33
2023-01-10T08:42:06.389Z,2.75
2023-01-10T08:44:11.519Z,2.17
2023-01-10T08:46:14.354Z,3.28
2023-01-10T08:48:18.782Z,3.05
2023-01-10T08:50:21.760Z,3.25
2023-01-10T08:52:24.574Z,2.72
2023-01-10T08:54:27.317Z,2.97
2023-01-10T08:56:30.590Z,3.80
2023-01-10T08:58:33.556Z,2.58
2023-01-10T09:00:36.385Z,4.68
2023-01-10T09:02:41.157Z,2.60
2023-01-10T09:06:47.984Z,2.63
2023-01-10T09:08:50.836Z,2.63
2023-01-10T09:10:53.827Z,2.10
2023-01-10T09:12:59.864Z,2.72
2023-01-10T09:15:02.841Z,2.80
2023-01-10T09:17:05.649Z,3.10
2023-01-10T09:19:08.692Z,3.60
2023-01-10T09:21:12.789Z,2.53
2023-01-10T09:23:19.996Z,2.55
2023-01-10T09:25:23.462Z,3.15
2023-01-10T09:27:26.304Z,2.58
2023-01-10T09:29:29.090Z,2.72
2023-01-10T09:31:31.922Z,3.08
2023-01-10T09:33:45.661Z,3.72
2023-01-10T09:35:49.462Z,2.83
2023-01-10T09:37:56.592Z,2.92
2023-01-10T09:39:59.442Z,3.25
2023-01-10T09:42:15.503Z,3.15
2023-01-10T09:44:26.223Z,3.33
2023-01-10T09:46:40.755Z,2.75
2023-01-10T09:48:50.327Z,2.97
2023-01-10T09:51:10.165Z,2.70
2023-01-10T09:53:17.501Z,3.15
2023-01-10T09:55:27.052Z,3.15
2023-01-10T09:57:29.997Z,2.60
2023-01-10T09:59:38.016Z,3.60
2023-01-10T10:01:41.269Z,2.75
2023-01-10T10:03:50.555Z,3.53
2023-01-10T10:06:00.868Z,2.95
2023-01-10T10:08:18.919Z,3.50
2023-01-10T10:10:25.380Z,3.38
2023-01-10T10:12:38.514Z,3.53
2023-01-10T10:14:56.927Z,2.88
2023-01-10T10:17:11.377Z,3.13
2023-01-10T10:19:22.998Z,2.77
2023-01-10T10:21:34.658Z,3.42
2023-01-10T10:24:00.539Z,2.83
2023-01-10T10:28:31.481Z,3.22
2023-01-10T10:30:50.004Z,3.03
2023-01-10T10:33:02.115Z,4.30
2023-01-10T10:35:14.364Z,2.88
2023-01-10T10:37:22.729Z,3.28
2023-01-10T10:39:43.033Z,2.97
2023-01-10T10:41:49.144Z,3.10
2023-01-10T10:43:55.394Z,2.58
2023-01-10T10:46:02.181Z,2.90
2023-01-10T10:48:14.130Z,4.22
2023-01-10T10:50:22.428Z,2.58
2023-01-10T10:52:28.087Z,3.28
2023-01-10T10:54:34.641Z,3.72
2023-01-10T10:56:37.498Z,3.00
2023-01-10T10:58:43.074Z,3.80
2023-01-10T11:00:46.535Z,3.75
2023-01-10T11:02:53.989Z,4.18
2023-01-10T11:05:08.397Z,3.33
2023-01-10T11:07:17.415Z,3.63
2023-01-10T11:09:24.097Z,3.15
2023-01-10T11:11:30.012Z,3.22
2023-01-10T11:13:45.033Z,3.20
2023-01-10T11:15:49.472Z,3.47
2023-01-10T11:18:06.258Z,3.20
2023-01-10T11:20:17.447Z,3.88
2023-01-10T11:22:20.479Z,2.90
2023-01-10T11:24:31.641Z,3.13
2023-01-10T11:26:40.145Z,3.65
2023-01-10T11:28:45.702Z,3.60
2023-01-10T11:30:51.766Z,3.50
2023-01-10T11:32:58.062Z,3.30
2023-01-10T11:35:03.436Z,2.72
2023-01-10T11:37:19.068Z,3.65
2023-01-10T11:39:21.966Z,2.90
2023-01-10T11:41:31.515Z,2.85
2023-01-10T11:43:37.737Z,3.03
2023-01-10T11:45:40.971Z,4.38
2023-01-10T11:47:46.311Z,2.95
2023-01-10T11:49:51.050Z,3.15
2023-01-10T11:51:59.355Z,3.22
2023-01-10T11:54:04.745Z,3.78
2023-01-10T11:56:09.963Z,3.05
2023-01-10T11:58:16.001Z,3.72
2023-01-10T12:00:20.936Z,2.97
2023-01-10T12:04:32.321Z,3.13
2023-01-10T12:06:35.593Z,3.42
2023-01-10T12:08:42.306Z,3.80
2023-01-10T12:10:59.050Z,3.90
2023-01-10T12:13:14.608Z,3.63
2023-01-10T12:15:27.567Z,4.38
2023-01-10T12:17:32.434Z,4.18
2023-01-10T12:19:35.202Z,3.55
2023-01-10T12:21:41.280Z,3.95
2023-01-10T12:24:03.734Z,3.58
2023-01-10T12:26:12.235Z,4.07
2023-01-10T12:28:18.788Z,5.07
2023-01-10T12:30:31.080Z,3.30
2023-01-10T12:32:42.721Z,3.42
2023-01-10T12:34:50.237Z,2.78
2023-01-10T12:37:06.544Z,3.55
2023-01-10T12:39:16.431Z,3.88
2023-01-10T12:41:45.544Z,3.97
2023-01-10T12:44:14.752Z,4.43
2023-01-10T12:46:41.000Z,3.50
2023-01-10T12:48:51.742Z,4.03
2023-01-10T12:51:02.293Z,3.88
2023-01-10T12:53:12.600Z,3.95
2023-01-10T12:55:17.154Z,3.97
2023-01-10T12:57:29.213Z,3.38
2023-01-10T12:59:38.239Z,2.97
2023-01-10T13:01:44.068Z,4.07
2023-01-10T13:03:54.385Z,3.55
2023-01-10T13:05:59.293Z,3.55
2023-01-10T13:10:09.597Z,3.22
2023-01-10T13:12:17.379Z,4.18
2023-01-10T13:14:24.697Z,4.50
2023-01-10T13:16:38.216Z,3.28
2023-01-10T13:18:58.947Z,3.33
2023-01-10T13:21:08.694Z,2.40
2023-01-10T13:23:27.137Z,2.97
2023-01-10T13:25:32.006Z,3.30
2023-01-10T13:27:36.434Z,3.22
2023-01-10T13:29:42.073Z,3.88
2023-01-10T13:31:45.589Z,3.17
2023-01-10T13:33:55.352Z,4.07
2023-01-10T13:36:08.374Z,3.28
2023-01-10T13:38:19.590Z,3.42
2023-01-10T13:40:27.330Z,4.30
2023-01-10T13:42:49.619Z,2.90
2023-01-10T13:45:16.851Z,3.42
2023-01-10T13:48:12.775Z,3.42
2023-01-10T13:50:51.940Z,4.82
2023-01-10T13:52:55.581Z,3.30
2023-01-10T13:54:59.158Z,4.75
2023-01-10T13:57:01.960Z,3.08
2023-01-10T13:59:28.911Z,3.05
2023-01-10T14:01:56.052Z,2.50
2023-01-10T14:04:00.246Z,2.78
2023-01-10T14:06:06.635Z,2.47
2023-01-10T14:08:17.964Z,3.40
2023-01-10T14:10:23.782Z,2.92
2023-01-10T14:12:33.957Z,3.95
2023-01-10T14:14:40.812Z,2.13
2023-01-10T14:16:46.723Z,2.80
2023-01-10T14:18:49.650Z,2.78
2023-01-10T14:20:58.916Z,3.22
2023-01-10T14:23:07.236Z,3.40
2023-01-10T14:25:20.042Z,3.42
2023-01-10T14:27:23.626Z,3.60
2023-01-10T14:29:30.523Z,2.17
2023-01-10T14:31:36.906Z,2.40
2023-01-10T14:33:43.875Z,3.17
2023-01-10T14:35:51.466Z,2.40
2023-01-10T14:37:57.585Z,2.88
2023-01-10T14:40:02.227Z,2.58
2023-01-10T14:42:09.430Z,3.40
2023-01-10T14:44:18.917Z,2.47
2023-01-10T14:46:25.874Z,2.45
2023-01-10T14:48:31.334Z,2.67
2023-01-10T14:50:35.066Z,2.78
2023-01-10T14:52:37.881Z,1.88
2023-01-10T14:54:40.680Z,2.20
2023-01-10T14:56:47.067Z,2.65
2023-01-10T14:58:49.890Z,2.30
2023-01-10T15:00:55.580Z,2.67
2023-01-10T15:03:01.654Z,3.10
2023-01-10T15:05:10.350Z,2.10
2023-01-10T15:07:16.568Z,2.90
2023-01-10T15:09:19.393Z,3.22
2023-01-10T15:11:22.285Z,2.30
2023-01-10T15:13:28.464Z,3.25
2023-01-10T15:15:34.229Z,2.70
2023-01-10T15:17:38.135Z,2.08
2023-01-10T15:19:41.484Z,2.25
2023-01-10T15:21:45.807Z,2.63
2023-01-10T15:23:50.034Z,3.63
2023-01-10T15:25:58.410Z,2.35
2023-01-10T15:28:02.688Z,2.45
2023-01-10T15:30:11.731Z,3.17
2023-01-10T15:32:24.221Z,6.20
2023-01-10T15:34:30.186Z,6.10
2023-01-10T15:36:33.075Z,5.05
2023-01-10T15:38:39.414Z,5.20
2023-01-10T15:40:43.566Z,11.80
2023-01-10T15:42:46.415Z,11.25
2023-01-10T15:44:53.318Z,8.55
2023-01-10T15:46:58.352Z,3.70
2023-01-10T15:49:04.402Z,2.83
2023-01-10T15:51:14.993Z,3.80
2023-01-10T15:53:17.821Z,2.35
2023-01-10T15:55:35.528Z,2.33
2023-01-10T15:57:38.392Z,1.85
2023-01-10T15:59:47.417Z,2.72
2023-01-10T16:01:55.426Z,2.28
2023-01-10T16:04:02.275Z,2.50
2023-01-10T16:06:09.626Z,2.25
2023-01-10T16:08:13.061Z,3.00
2023-01-10T16:10:21.183Z,2.30
2023-01-10T16:12:47.315Z,2.38
2023-01-10T16:14:50.063Z,2.03
2023-01-10T16:16:53.017Z,2.45
2023-01-10T16:18:55.854Z,2.30
2023-01-10T16:21:02.470Z,2.80
2023-01-10T16:23:08.816Z,2.17
2023-01-10T16:25:16.433Z,3.78
2023-01-10T16:27:19.355Z,2.03
2023-01-10T16:29:22.646Z,2.20
2023-01-10T16:31:25.544Z,2.13
2023-01-10T16:33:29.043Z,2.38
2023-01-10T16:35:31.947Z,2.80
2023-01-10T16:37:36.157Z,2.17
2023-01-10T16:39:38.959Z,2.15
2023-01-10T16:42:00.349Z,2.40
2023-01-10T16:44:03.496Z,2.00
2023-01-10T16:46:06.720Z,2.35
2023-01-10T16:48:10.763Z,2.13
2023-01-10T16:50:13.590Z,1.52
2023-01-10T16:52:16.470Z,2.33
2023-01-10T16:54:22.513Z,2.38
2023-01-10T16:56:26.742Z,2.10
2023-01-10T16:58:29.669Z,2.38
2023-01-10T17:00:32.625Z,1.85
2023-01-10T17:02:35.452Z,2.88
2023-01-10T17:04:39.854Z,2.13
2023-01-10T17:06:42.658Z,2.70
2023-01-10T17:08:45.919Z,2.10
2023-01-10T17:10:53.426Z,1.98
2023-01-10T17:12:56.363Z,2.05
2023-01-10T17:14:59.669Z,2.55
2023-01-10T17:17:05.523Z,2.35
2023-01-10T17:19:09.532Z,1.52
2023-01-10T17:21:16.204Z,3.10
2023-01-10T17:23:19.141Z,2.60
2023-01-10T17:25:22.234Z,2.00
2023-01-10T17:27:26.372Z,2.50
2023-01-10T17:29:30.235Z,2.10
2023-01-10T17:31:33.132Z,2.60
2023-01-10T17:33:36.175Z,2.50
2023-01-10T17:35:41.091Z,2.03
2023-01-10T17:39:46.537Z,1.63
2023-01-10T17:41:49.480Z,2.25
2023-01-10T17:43:53.731Z,2.30
2023-01-10T17:45:58.612Z,1.80
2023-01-10T17:48:01.603Z,2.25
2023-01-10T17:50:05.075Z,2.28
2023-01-10T17:52:08.077Z,2.35
2023-01-10T17:54:10.858Z,1.90
2023-01-10T17:56:14.465Z,1.70
2023-01-10T17:58:18.609Z,2.40
2023-01-10T18:00:22.841Z,2.20
2023-01-10T18:02:25.851Z,2.10
2023-01-10T18:04:28.809Z,2.55
2023-01-10T18:06:31.670Z,2.25
2023-01-10T18:08:34.522Z,2.42
2023-01-10T18:10:37.213Z,2.45
2023-01-10T18:12:40.212Z,2.88
2023-01-10T18:14:43.057Z,2.30
2023-01-10T18:16:47.317Z,2.15
2023-01-10T18:18:50.511Z,2.20
2023-01-10T18:20:55.210Z,1.70
2023-01-10T18:23:15.447Z,2.28
2023-01-10T18:25:19.348Z,2.45
2023-01-10T18:27:22.327Z,2.15
2023-01-10T18:29:25.107Z,3.17
2023-01-10T18:31:27.995Z,2.67
2023-01-10T18:33:32.504Z,2.30
2023-01-10T18:35:35.364Z,2.72
2023-01-10T18:37:38.331Z,2.03
2023-01-10T18:39:43.341Z,2.60
2023-01-10T18:41:46.135Z,2.15
2023-01-10T18:43:49.265Z,2.42
2023-01-10T18:46:00.831Z,2.67
2023-01-10T18:48:05.399Z,2.50
2023-01-10T18:50:10.745Z,2.47
2023-01-10T18:52:13.576Z,1.75
2023-01-10T18:54:16.501Z,2.13
2023-01-10T18:56:19.313Z,2.28
2023-01-10T18:58:24.045Z,2.00
2023-01-10T19:00:27.215Z,2.10
2023-01-10T19:02:30.103Z,3.00
2023-01-10T19:04:33.062Z,2.15
2023-01-10T19:06:37.162Z,1.85
2023-01-10T19:08:40.620Z,2.22
2023-01-10T19:11:07.091Z,2.63
2023-01-10T19:13:07.289Z,3.33
2023-01-10T19:15:11.297Z,3.45
2023-01-10T19:17:14.129Z,3.05
2023-01-10T19:19:17.440Z,2.30
2023-01-10T19:21:20.990Z,2.67
2023-01-10T19:23:25.144Z,3.17
2023-01-10T19:25:28.111Z,4.40
2023-01-10T19:27:30.872Z,3.25
2023-01-10T19:29:34.902Z,2.88
2023-01-10T19:31:37.812Z,2.83
2023-01-10T19:33:43.014Z,3.30
2023-01-10T19:35:45.931Z,2.90
2023-01-10T19:37:48.884Z,2.72
2023-01-10T19:39:53.027Z,2.47
2023-01-10T19:41:55.866Z,2.92
2023-01-10T19:44:00.177Z,2.60
2023-01-10T19:46:06.932Z,3.22
2023-01-10T19:48:09.861Z,1.95
2023-01-10T19:50:12.616Z,2.60
2023-01-10T19:52:15.411Z,2.55
2023-01-10T19:54:18.838Z,2.38
2023-01-10T19:56:23.257Z,2.60
2023-01-10T19:58:26.273Z,2.22
2023-01-10T20:00:29.084Z,3.20
2023-01-10T20:02:32.277Z,2.97
2023-01-10T20:04:35.278Z,3.50
2023-01-10T20:06:39.953Z,2.58
2023-01-10T20:08:42.876Z,1.70
2023-01-10T20:10:45.774Z,3.28
2023-01-10T20:12:49.950Z,2.70
2023-01-10T20:14:52.773Z,3.40
2023-01-10T20:16:55.620Z,2.30
2023-01-10T20:18:58.406Z,2.95
2023-01-10T20:21:04.687Z,3.53
2023-01-10T20:23:09.166Z,3.13
2023-01-10T20:25:11.984Z,3.53
2023-01-10T20:27:14.781Z,2.35
2023-01-10T20:29:19.975Z,2.15
2023-01-10T20:31:24.404Z,2.95
2023-01-10T20:33:27.545Z,2.72
2023-01-10T20:35:30.377Z,2.40
2023-01-10T20:37:33.266Z,3.20
2023-01-10T20:39:36.143Z,2.28
2023-01-10T20:41:38.971Z,2.50
2023-01-10T20:43:42.298Z,2.88
2023-01-10T20:45:46.505Z,2.67
2023-01-10T20:47:53.153Z,3.33
2023-01-10T20:49:55.969Z,2.65
2023-01-10T20:51:58.906Z,3.00
2023-01-10T20:54:02.590Z,2.78
2023-01-10T20:56:06.924Z,2.85
2023-01-10T20:58:09.802Z,3.50
2023-01-10T21:00:13.717Z,4.13
2023-01-10T21:02:17.914Z,3.47
2023-01-10T21:04:20.816Z,3.67
2023-01-10T21:06:23.688Z,3.53
2023-01-10T21:08:29.434Z,2.88
2023-01-10T21:10:32.263Z,6.55
2023-01-10T21:12:35.685Z,3.90
2023-01-10T21:14:38.461Z,3.40
2023-01-10T21:16:41.296Z,4.00
2023-01-10T21:18:45.390Z,6.78
2023-01-10T21:20:48.368Z,2.70
2023-01-10T21:22:51.189Z,3.03
2023-01-10T21:24:54.701Z,2.58
2023-01-10T21:26:57.612Z,3.10
2023-01-10T21:29:01.855Z,2.03
2023-01-10T21:31:04.869Z,2.45
2023-01-10T21:33:08.152Z,3.20
2023-01-10T21:35:12.334Z,2.47
2023-01-10T21:37:15.461Z,2.40
2023-01-10T21:39:18.959Z,2.75
2023-01-10T21:41:35.912Z,2.72
2023-01-10T21:43:43.955Z,3.40
2023-01-10T21:45:46.789Z,2.85
2023-01-10T21:47:49.995Z,2.05
2023-01-10T21:49:52.904Z,1.90
2023-01-10T21:51:57.736Z,2.70
2023-01-10T21:54:00.600Z,2.03
2023-01-10T21:56:03.399Z,4.22
2023-01-10T21:58:06.320Z,2.20
2023-01-10T22:00:10.397Z,3.25
2023-01-10T22:02:17.612Z,2.50
2023-01-10T22:04:20.860Z,3.30
2023-01-10T22:06:23.719Z,3.28
2023-01-10T22:08:27.859Z,3.70
2023-01-10T22:10:31.121Z,4.70
2023-01-10T22:12:34.009Z,3.40
2023-01-10T22:14:37.011Z,3.78
2023-01-10T22:16:39.905Z,4.38
2023-01-10T22:18:44.771Z,10.30
2023-01-10T22:20:48.280Z,3.70
2023-01-10T22:22:51.079Z,2.05
2023-01-10T22:24:55.261Z,1.60
2023-01-10T22:26:58.248Z,1.88
2023-01-10T22:29:01.184Z,1.98
2023-01-10T22:31:04.658Z,1.42
2023-01-10T22:33:07.637Z,1.77
2023-01-10T22:35:13.627Z,1.30
2023-01-10T22:37:17.295Z,1.80
2023-01-10T22:39:20.225Z,2.47
2023-01-10T22:41:26.591Z,1.70
2023-01-10T22:43:29.381Z,1.80
2023-01-10T22:45:32.252Z,1.85
2023-01-10T22:47:35.052Z,1.48
2023-01-10T22:49:38.567Z,1.90
2023-01-10T22:51:41.517Z,1.95
2023-01-10T22:53:44.416Z,1.60
2023-01-10T22:55:47.261Z,1.83
2023-01-10T22:57:51.299Z,1.70
2023-01-10T22:59:54.141Z,1.55
2023-01-10T23:01:56.968Z,1.85
2023-01-10T23:03:59.747Z,1.50
2023-01-10T23:06:02.653Z,2.05
2023-01-10T23:08:05.775Z,1.67
2023-01-10T23:10:24.405Z,1.63
2023-01-10T23:12:31.779Z,1.85
2023-01-10T23:14:36.474Z,2.60
2023-01-10T23:16:39.390Z,2.17
2023-01-10T23:18:42.377Z,1.67
2023-01-10T23:20:48.478Z,1.27
2023-01-10T23:22:51.333Z,1.63
2023-01-10T23:24:54.331Z,1.65
2023-01-10T23:26:57.077Z,2.03
2023-01-10T23:28:59.875Z,2.08
2023-01-10T23:31:04.458Z,1.38
2023-01-10T23:33:07.326Z,2.00
2023-01-10T23:35:10.992Z,1.75
2023-01-10T23:37:13.743Z,1.35
2023-01-10T23:39:18.917Z,1.77
2023-01-10T23:41:21.944Z,1.40
2023-01-10T23:43:25.395Z,1.73
2023-01-10T23:45:28.146Z,1.55
2023-01-10T23:47:32.284Z,1.50
2023-01-10T23:49:35.371Z,1.33
2023-01-10T23:51:38.397Z,2.33
2023-01-10T23:53:41.842Z,2.20
2023-01-10T23:55:44.779Z,1.67
2023-01-10T23:57:47.556Z,1.70
2023-01-10T23:59:50.320Z,1.50
